アピア の空港の天気 - METARとTAF

ファレオロ国際空港(サモア) ( NSFA / APW ) - サモア アピア
飛行場実況気象(Metar)
観測時間11/22 02:00 WSDT (11/21 12:00 UTC)
風向・風速東南東 2m/s
視程10km以上
天気現象
全天の4割程度の雲 雲底高度 610m
全天の8割程度の雲 雲底高度 1340m
気温25℃
湿度89%
気圧1008hPa
METARNSFA 211200Z 12004KT 9999 SCT020 BKN044 25/23 Q1008 RMK NIL
過去の天気等 Google飛行場航空写真 Wunderground天気予報

過去48時間のMETAR

飛行場予報(TAF)
発表時間: 11/22 01:26 WSDT (11/21 11:26 UTC)
予報対象時間: 22日2時 WSDT ~ 23日2時 WSDT
風向・風速東 3m/s
視程10km以上
全天の4割程度の雲 雲底高度 610m
全天の8割程度の雲 雲底高度 1220m
22日20時 WSDT ~ 23日2時 WSDT に 確率 40% で一時的に
視程5000m
天気現象雷雨
全天の8割程度の雲 雲底高度 460m
少しの積乱雲 雲底高度 550m
TAF NSFA 211126Z 2112/2212 08006KT 9999 SCT020 BKN040
PROB40 TEMPO 2206/2212 5000 TSRA BKN015 FEW018CB